Airfield :
LOGIN :

Register | Disclaimer

   EN    FR    IT 

 










Legend :    VFR   Marginal VFR   IFR   Intensive IFR   Very Intensive IFR
Visi :
Ceiling :
>= 8 km
>= 3000ft
5 to 8 km
1000 to 3000 ft
1500m to 5 km
500 to 1000 ft
800 to 1500m
200 to 500 ft
< 800m
< 200 ft
Symbols :   Thunderstorms  Fog  Heavy snow  Heavy precipitations  Wind > 20 kt
SIGMETs :     Misc.  Thunderstorms  Icing  Turbulence  Mountain Waves  Volcanic Ashes






- Airport Elevation : 228 ft
- IATA code : OPO


LPPR - Porto Fr. Sa Carneiro

CURRENT METAR :
  • 280130Z 11008KT CAVOK 24/08 Q1013

EXPIRED METARs :
  • 280100Z 12007KT CAVOK 23/12 Q1013
  • 280030Z 11007KT CAVOK 18/14 Q1014
  • 280000Z 09006KT CAVOK 20/14 Q1014
  • 272330Z VRB01KT CAVOK 19/14 Q1014
  • 272300Z 01003KT 330V060 CAVOK 19/14 Q1014

TAF TAF LPPR
Valid from the 28 at 00:00 until the 29 at 00:00 UTC


272300Z 2800/2824 VRB02KT CAVOK
BECMG 2802/2804 10010KT
BECMG 2808/2811 23008KT
BECMG 2813/2815 31008KT
BECMG 2822/2824 VRB02KT



MET'MAP, your aeronautical weather chart ! - Copyright ORBIFLY December 2007 - Disclaimer

ORBIFLY MET'MAP TEAM :

Programming & Development : Alexandra Zaïnal
Original concept : Baudouin d'Aumeries
Technical & hardware support : Manuel Goepfert
Assistance : Marc-Olivier Méhu

Contact : metmap@orbifly.com




SOURCES & CREDITS :

   NOAA